createdAt,value
2017-12-27T00:00:22.845Z,277.026
2017-12-27T00:01:28.280Z,277.5413
2017-12-27T00:02:33.767Z,278.223
2017-12-27T00:03:39.684Z,279.1637
2017-12-27T00:04:45.165Z,278.7383
2017-12-27T00:05:50.693Z,278.4819
2017-12-27T00:06:56.424Z,278.223
2017-12-27T00:08:01.603Z,279.9352
2017-12-27T00:09:07.106Z,279.6789
2017-12-27T00:10:12.592Z,279.9352
2017-12-27T00:11:17.809Z,280.3633
2017-12-27T00:12:23.278Z,280.6196
2017-12-27T00:13:29.184Z,280.6196
2017-12-27T00:14:33.803Z,281.1322
2017-12-27T00:15:39.245Z,281.8166
2017-12-27T00:16:44.447Z,282.3292
2017-12-27T00:17:49.640Z,281.6448
2017-12-27T00:18:55.120Z,283.2698
2017-12-27T00:20:00.593Z,283.0135
2017-12-27T00:21:05.510Z,283.5261
2017-12-27T00:22:11.260Z,283.0135
2017-12-27T00:23:16.750Z,282.7572
2017-12-27T00:24:21.961Z,283.5261
2017-12-27T00:25:27.613Z,283.5261
2017-12-27T00:26:33.079Z,283.7824
2017-12-27T00:27:38.912Z,284.2977
2017-12-27T00:28:44.102Z,284.0388
2017-12-27T00:29:49.559Z,284.554
2017-12-27T00:30:55.236Z,283.7824
2017-12-27T00:32:00.726Z,284.8103
2017-12-27T00:33:05.928Z,285.2383
2017-12-27T00:34:11.427Z,285.751
2017-12-27T00:35:16.905Z,285.751
2017-12-27T00:36:22.081Z,285.751
2017-12-27T00:37:27.689Z,286.2636
2017-12-27T00:38:33.162Z,285.3229
2017-12-27T00:39:39.098Z,287.2914
2017-12-27T00:40:44.576Z,287.7195
2017-12-27T00:41:50.069Z,288.2321
2017-12-27T00:42:55.516Z,287.2914
2017-12-27T00:44:01.001Z,287.9758
2017-12-27T00:45:05.915Z,287.5477
2017-12-27T00:46:11.481Z,287.7195
2017-12-27T00:47:16.992Z,288.4884
2017-12-27T00:48:21.918Z,288.4884
2017-12-27T00:49:27.298Z,288.7473
2017-12-27T00:50:32.771Z,289.5163
2017-12-27T00:51:38.522Z,289.26
2017-12-27T00:52:44.015Z,289.0037
2017-12-27T00:53:49.505Z,290.2006
2017-12-27T00:54:54.946Z,288.7473
2017-12-27T00:56:00.432Z,290.2878
2017-12-27T00:57:05.917Z,289.26
2017-12-27T00:58:11.647Z,290.0315
2017-12-27T00:59:17.149Z,290.4596
2017-12-27T01:00:22.080Z,290.9722
2017-12-27T01:01:27.117Z,290.9722
2017-12-27T01:02:32.031Z,290.9722
2017-12-27T01:03:37.745Z,290.4596
2017-12-27T01:04:43.217Z,290.9722
2017-12-27T01:05:48.711Z,292.2563
2017-12-27T01:06:54.530Z,292.0001
2017-12-27T01:08:00.036Z,292.2563
2017-12-27T01:09:05.501Z,292.769
2017-12-27T01:10:11.338Z,292.5127
2017-12-27T01:11:16.853Z,293.7123
2017-12-27T01:12:21.767Z,293.884
2017-12-27T01:13:27.104Z,293.456
2017-12-27T01:14:32.298Z,293.884
2017-12-27T01:15:37.479Z,293.884
2017-12-27T01:16:42.671Z,294.3966
2017-12-27T01:17:48.168Z,293.7123
2017-12-27T01:18:53.990Z,294.1403
2017-12-27T01:19:59.172Z,294.653
2017-12-27T01:21:04.640Z,295.8525
2017-12-27T01:22:10.505Z,295.8525
2017-12-27T01:23:15.986Z,294.9119
2017-12-27T01:24:21.482Z,295.5963
2017-12-27T01:25:26.968Z,295.8525
2017-12-27T01:26:32.427Z,296.8804
2017-12-27T01:27:38.374Z,296.8804
2017-12-27T01:28:43.558Z,296.6241
2017-12-27T01:29:49.016Z,297.5648
2017-12-27T01:30:53.909Z,297.3085
2017-12-27T01:31:59.407Z,297.3957
2017-12-27T01:33:04.871Z,298.08
2017-12-27T01:34:10.612Z,298.3363
2017-12-27T01:35:15.528Z,299.1079
2017-12-27T01:36:20.709Z,297.9083
2017-12-27T01:37:26.266Z,298.3363
2017-12-27T01:38:31.754Z,298.08
2017-12-27T01:39:36.896Z,298.8516
2017-12-27T01:40:42.095Z,298.8516
2017-12-27T01:41:47.588Z,298.8516
2017-12-27T01:42:53.316Z,299.8795
2017-12-27T01:43:58.498Z,299.3642
2017-12-27T01:45:03.414Z,299.3642
2017-12-27T01:46:09.257Z,299.1079
2017-12-27T01:47:14.471Z,299.6231
2017-12-27T01:48:19.953Z,300.1357
2017-12-27T01:49:24.838Z,299.8795
2017-12-27T01:50:30.025Z,301.2508
2017-12-27T01:51:35.695Z,300.1357
2017-12-27T01:52:40.913Z,300.9919
2017-12-27T01:53:46.368Z,300.651
2017-12-27T01:54:52.290Z,301.7634
2017-12-27T01:55:57.765Z,302.0224
2017-12-27T01:57:03.247Z,302.0224
2017-12-27T01:58:08.839Z,303.3065
2017-12-27T01:59:14.047Z,302.7939
2017-12-27T02:00:19.552Z,302.535
2017-12-27T02:01:25.060Z,303.5628
2017-12-27T02:02:29.680Z,303.0502
2017-12-27T02:03:35.601Z,303.5628
2017-12-27T02:04:41.090Z,303.8218
2017-12-27T02:05:46.545Z,303.9935
2017-12-27T02:06:52.360Z,303.9935
2017-12-27T02:07:57.563Z,304.5061
2017-12-27T02:09:02.759Z,303.9935
2017-12-27T02:10:08.618Z,304.2498
2017-12-27T02:11:14.113Z,303.5628
2017-12-27T02:12:19.601Z,303.0502
2017-12-27T02:13:25.362Z,304.2498
2017-12-27T02:14:30.281Z,304.0781
2017-12-27T02:15:36.165Z,304.2498
2017-12-27T02:16:39.958Z,305.2777
2017-12-27T02:17:45.415Z,305.2777
2017-12-27T02:18:51.300Z,304.7651
2017-12-27T02:19:56.974Z,305.793
2017-12-27T02:21:02.450Z,305.793
2017-12-27T02:22:08.056Z,305.0214
2017-12-27T02:23:13.533Z,305.2777
2017-12-27T02:24:19.001Z,305.9647
2017-12-27T02:25:24.736Z,305.793
2017-12-27T02:26:29.344Z,304.7651
2017-12-27T02:27:34.893Z,305.793
2017-12-27T02:28:40.365Z,306.221
2017-12-27T02:29:45.837Z,306.221
2017-12-27T02:30:51.475Z,305.2777
2017-12-27T02:31:56.370Z,305.5367
2017-12-27T02:33:01.640Z,306.4799
2017-12-27T02:34:07.092Z,306.7363
2017-12-27T02:35:12.313Z,307.7641
2017-12-27T02:36:17.521Z,307.7641
2017-12-27T02:37:23.004Z,307.2515
2017-12-27T02:38:28.196Z,306.9926
2017-12-27T02:39:33.927Z,308.7074
2017-12-27T02:40:39.402Z,309.3944
2017-12-27T02:41:44.903Z,309.1381
2017-12-27T02:42:50.386Z,308.2794
2017-12-27T02:43:55.863Z,308.0231
2017-12-27T02:45:01.353Z,308.2794
2017-12-27T02:46:06.651Z,308.2794
2017-12-27T02:47:11.258Z,308.0231
2017-12-27T02:48:16.739Z,307.7641
2017-12-27T02:49:21.896Z,307.5078
2017-12-27T02:50:27.123Z,308.2794
2017-12-27T02:51:32.727Z,308.0231
2017-12-27T02:52:37.920Z,308.2794
2017-12-27T02:53:43.399Z,309.1381
2017-12-27T02:54:49.267Z,309.3944
2017-12-27T02:55:54.759Z,309.1381
2017-12-27T02:57:00.254Z,310.6812
2017-12-27T02:58:05.682Z,310.9376
2017-12-27T02:59:10.879Z,310.6812
2017-12-27T03:00:16.070Z,312.1398
2017-12-27T03:01:21.795Z,311.6245
2017-12-27T03:02:26.729Z,312.1398
2017-12-27T03:03:32.024Z,312.1398
2017-12-27T03:04:37.505Z,311.6245
2017-12-27T03:05:42.978Z,312.6551
2017-12-27T03:06:48.933Z,312.6551
2017-12-27T03:07:53.833Z,313.4266
2017-12-27T03:08:59.321Z,313.1677
2017-12-27T03:10:04.583Z,313.8547
2017-12-27T03:11:10.107Z,314.8852
2017-12-27T03:12:15.583Z,315.6567
2017-12-27T03:13:21.346Z,316.3438
2017-12-27T03:14:25.674Z,315.913
2017-12-27T03:15:31.506Z,316.172
2017-12-27T03:16:36.981Z,316.3438
2017-12-27T03:17:42.486Z,317.1153
2017-12-27T03:18:47.979Z,317.1153
2017-12-27T03:19:53.463Z,317.6306
2017-12-27T03:20:58.919Z,317.8868
2017-12-27T03:22:04.886Z,317.8868
2017-12-27T03:23:10.367Z,317.6306
2017-12-27T03:24:15.846Z,317.8868
2017-12-27T03:25:21.580Z,318.661
2017-12-27T03:26:26.791Z,318.4021
2017-12-27T03:27:32.280Z,318.1458
2017-12-27T03:28:37.758Z,318.661
2017-12-27T03:29:42.941Z,319.3481
2017-12-27T03:30:48.457Z,319.3481
2017-12-27T03:31:53.925Z,319.6044
2017-12-27T03:32:59.419Z,320.1196
2017-12-27T03:34:05.160Z,319.8633
2017-12-27T03:35:10.631Z,320.1196
2017-12-27T03:36:16.091Z,319.6044
2017-12-27T03:37:21.735Z,319.8633
2017-12-27T03:38:26.653Z,319.6044
2017-12-27T03:39:31.825Z,319.6044
2017-12-27T03:40:36.999Z,320.5503
2017-12-27T03:41:42.472Z,320.722
2017-12-27T03:42:47.923Z,320.5503
2017-12-27T03:43:53.395Z,320.3786
2017-12-27T03:44:58.570Z,321.4936
2017-12-27T03:46:04.071Z,321.3219
2017-12-27T03:47:09.280Z,321.0629
2017-12-27T03:48:14.213Z,322.0089
2017-12-27T03:49:19.822Z,322.2652
2017-12-27T03:50:25.319Z,323.2957
2017-12-27T03:51:30.905Z,323.2957
2017-12-27T03:52:35.781Z,323.8981
2017-12-27T03:53:41.281Z,324.1544
2017-12-27T03:54:47.153Z,324.1544
2017-12-27T03:55:52.632Z,324.6697
2017-12-27T03:56:57.849Z,325.4439
2017-12-27T03:58:03.286Z,324.6697
2017-12-27T03:59:08.458Z,324.6697
2017-12-27T04:00:13.929Z,325.7002
2017-12-27T04:01:19.356Z,326.9051
2017-12-27T04:02:23.973Z,326.2181
2017-12-27T04:03:29.933Z,326.9051
2017-12-27T04:04:35.402Z,326.9051
2017-12-27T04:05:40.613Z,327.4203
2017-12-27T04:06:46.333Z,327.1614
2017-12-27T04:07:51.518Z,327.9356
2017-12-27T04:08:56.766Z,326.4744
2017-12-27T04:10:02.294Z,327.6766
2017-12-27T04:11:07.785Z,328.1919
2017-12-27T04:12:12.972Z,327.1614
2017-12-27T04:13:18.850Z,327.6766
2017-12-27T04:14:23.466Z,327.1614
2017-12-27T04:15:28.951Z,328.4508
2017-12-27T04:16:34.430Z,328.4508
2017-12-27T04:17:39.926Z,328.4508
2017-12-27T04:18:45.670Z,328.1919
2017-12-27T04:19:51.130Z,328.8815
2017-12-27T04:20:56.057Z,329.6531
2017-12-27T04:22:01.670Z,329.912
2017-12-27T04:23:07.150Z,328.1919
2017-12-27T04:24:12.698Z,329.225
2017-12-27T04:25:18.473Z,328.9661
2017-12-27T04:26:23.413Z,329.6531
2017-12-27T04:27:28.639Z,330.6836
2017-12-27T04:28:33.860Z,330.1684
2017-12-27T04:29:39.340Z,330.1684
2017-12-27T04:30:45.066Z,329.4814
2017-12-27T04:31:50.529Z,329.225
2017-12-27T04:32:55.988Z,329.1378
2017-12-27T04:34:01.849Z,329.3968
2017-12-27T04:35:07.324Z,329.912
2017-12-27T04:36:12.216Z,329.3968
2017-12-27T04:37:18.010Z,330.9426
2017-12-27T04:38:23.269Z,330.4273
2017-12-27T04:39:29.170Z,330.4273
2017-12-27T04:40:34.656Z,331.1989
2017-12-27T04:41:40.130Z,329.912
2017-12-27T04:42:45.856Z,330.6836
2017-12-27T04:43:51.362Z,330.1684
2017-12-27T04:44:56.855Z,330.4273
2017-12-27T04:46:02.730Z,331.8885
2017-12-27T04:47:08.191Z,330.9426
2017-12-27T04:48:13.668Z,331.4578
2017-12-27T04:49:18.839Z,330.4273
2017-12-27T04:50:23.262Z,331.7167
2017-12-27T04:51:29.167Z,331.4578
2017-12-27T04:52:34.345Z,332.919
2017-12-27T04:53:39.836Z,333.6932
2017-12-27T04:54:45.580Z,333.9521
2017-12-27T04:55:50.769Z,334.2085
2017-12-27T04:56:56.251Z,334.2085
2017-12-27T04:58:02.006Z,334.6392
2017-12-27T04:59:07.476Z,334.2085
2017-12-27T05:00:12.951Z,333.9521
2017-12-27T05:01:18.776Z,335.1544
2017-12-27T05:02:23.983Z,335.4134
2017-12-27T05:03:29.935Z,335.6696
2017-12-27T05:04:35.405Z,334.8954
2017-12-27T05:05:40.647Z,336.6156
2017-12-27T05:06:46.086Z,336.3593
2017-12-27T05:07:51.640Z,336.6156
2017-12-27T05:08:57.113Z,337.0463
2017-12-27T05:10:02.104Z,337.3026
2017-12-27T05:11:07.585Z,338.3358
2017-12-27T05:12:12.800Z,337.0463
2017-12-27T05:13:18.658Z,337.3026
2017-12-27T05:14:23.859Z,337.0463
2017-12-27T05:15:29.426Z,337.3026
2017-12-27T05:16:34.893Z,337.8205
2017-12-27T05:17:40.350Z,339.11
2017-12-27T05:18:46.231Z,339.6252
2017-12-27T05:19:51.712Z,339.6252
2017-12-27T05:20:56.905Z,339.3689
2017-12-27T05:22:02.740Z,339.3689
2017-12-27T05:23:07.357Z,339.3689
2017-12-27T05:24:12.568Z,339.6252
2017-12-27T05:25:18.465Z,339.8842
2017-12-27T05:26:23.944Z,339.6252
2017-12-27T05:27:28.786Z,340.1431
2017-12-27T05:28:33.439Z,340.3148
2017-12-27T05:29:38.946Z,341.0891
2017-12-27T05:30:44.502Z,341.6043
2017-12-27T05:31:49.996Z,340.8301
2017-12-27T05:32:55.184Z,341.3454
2017-12-27T05:34:00.719Z,340.0559
2017-12-27T05:35:06.213Z,341.6043
2017-12-27T05:36:11.116Z,341.0891
2017-12-27T05:37:16.653Z,340.8301
2017-12-27T05:38:21.833Z,341.6043
2017-12-27T05:39:27.425Z,340.8301
2017-12-27T05:40:32.923Z,342.1196
2017-12-27T05:41:38.405Z,342.8092
2017-12-27T05:42:44.137Z,342.2939
2017-12-27T05:43:49.626Z,342.5503
2017-12-27T05:44:54.816Z,342.035
2017-12-27T05:46:00.534Z,342.1196
2017-12-27T05:47:05.737Z,343.0681
2017-12-27T05:48:11.223Z,342.8092
2017-12-27T05:49:16.421Z,344.0987
2017-12-27T05:50:21.611Z,344.0987
2017-12-27T05:51:27.117Z,343.8423
2017-12-27T05:52:31.770Z,344.0987
2017-12-27T05:53:37.254Z,343.8423
2017-12-27T05:54:43.181Z,344.0987
2017-12-27T05:55:48.675Z,344.0987
2017-12-27T05:56:54.150Z,344.9601
2017-12-27T05:58:00.143Z,343.8423
2017-12-27T05:59:05.627Z,343.8423
2017-12-27T06:00:10.850Z,344.3576
2017-12-27T06:01:16.291Z,344.9601
2017-12-27T06:02:21.776Z,345.219
2017-12-27T06:03:27.589Z,344.6165
2017-12-27T06:04:33.076Z,346.2521
2017-12-27T06:05:38.577Z,345.9932
2017-12-27T06:06:44.619Z,346.7674
2017-12-27T06:07:49.797Z,346.2521
2017-12-27T06:08:55.279Z,346.5085
2017-12-27T06:10:01.061Z,345.0472
2017-12-27T06:11:06.260Z,345.7343
2017-12-27T06:12:11.726Z,345.7343
2017-12-27T06:13:17.236Z,346.7674
2017-12-27T06:14:22.424Z,345.7343
2017-12-27T06:15:27.691Z,345.4753
2017-12-27T06:16:33.177Z,346.2521
2017-12-27T06:17:38.666Z,347.2853
2017-12-27T06:18:44.581Z,346.5085
2017-12-27T06:19:50.048Z,346.2521
2017-12-27T06:20:55.264Z,345.9932
2017-12-27T06:22:01.087Z,347.1981
2017-12-27T06:23:06.324Z,345.9932
2017-12-27T06:24:11.806Z,347.0263
2017-12-27T06:25:17.515Z,347.0263
2017-12-27T06:26:23.010Z,347.7133
2017-12-27T06:27:28.650Z,346.7674
2017-12-27T06:28:34.115Z,347.0263
2017-12-27T06:29:39.592Z,347.9723
2017-12-27T06:30:45.368Z,347.9723
2017-12-27T06:31:50.848Z,347.9723
2017-12-27T06:32:56.343Z,347.457
2017-12-27T06:34:01.823Z,348.7465
2017-12-27T06:35:07.313Z,348.4902
2017-12-27T06:36:12.200Z,349.0054
2017-12-27T06:37:17.363Z,349.2644
2017-12-27T06:38:22.570Z,349.0054
2017-12-27T06:39:28.442Z,349.6951
2017-12-27T06:40:33.944Z,349.2644
2017-12-27T06:41:39.427Z,349.5233
2017-12-27T06:42:45.376Z,349.9514
2017-12-27T06:43:50.843Z,350.6411
2017-12-27T06:44:56.354Z,350.0386
2017-12-27T06:46:02.175Z,350.2103
2017-12-27T06:47:07.633Z,350.2103
2017-12-27T06:48:13.112Z,349.5233
2017-12-27T06:49:18.412Z,349.9514
2017-12-27T06:50:23.625Z,350.2103
2017-12-27T06:51:28.713Z,350.2975
2017-12-27T06:52:33.914Z,350.7282
2017-12-27T06:53:39.429Z,351.1589
2017-12-27T06:54:44.998Z,351.1589
2017-12-27T06:55:49.914Z,350.9
2017-12-27T06:56:55.424Z,351.6742
2017-12-27T06:58:01.148Z,351.1589
2017-12-27T06:59:06.355Z,351.9331
2017-12-27T07:00:11.268Z,351.9331
2017-12-27T07:01:17.007Z,352.1921
2017-12-27T07:02:22.512Z,351.4153
2017-12-27T07:03:27.698Z,352.4484
2017-12-27T07:04:33.196Z,351.9331
2017-12-27T07:05:38.675Z,351.9331
2017-12-27T07:06:44.557Z,352.6228
2017-12-27T07:07:49.762Z,352.4484
2017-12-27T07:08:55.238Z,353.397
2017-12-27T07:10:00.784Z,353.397
2017-12-27T07:11:06.272Z,353.397
2017-12-27T07:12:11.775Z,353.397
2017-12-27T07:13:17.803Z,353.138
2017-12-27T07:14:23.036Z,352.8791
2017-12-27T07:15:28.471Z,353.6559
2017-12-27T07:16:33.962Z,353.397
2017-12-27T07:17:39.422Z,352.7073
2017-12-27T07:18:45.264Z,353.6559
2017-12-27T07:19:50.468Z,354.1712
2017-12-27T07:20:55.938Z,353.397
2017-12-27T07:22:01.694Z,353.6559
2017-12-27T07:23:06.889Z,354.1712
2017-12-27T07:24:12.105Z,353.397
2017-12-27T07:25:17.326Z,354.1712
2017-12-27T07:26:22.237Z,353.9149
2017-12-27T07:27:28.159Z,354.1712
2017-12-27T07:28:33.681Z,353.397
2017-12-27T07:29:39.178Z,353.397
2017-12-27T07:30:44.987Z,354.1712
2017-12-27T07:31:50.472Z,354.1712
2017-12-27T07:32:55.940Z,354.4301
2017-12-27T07:34:01.708Z,353.6559
2017-12-27T07:35:06.917Z,354.3456
2017-12-27T07:36:12.147Z,352.8791
2017-12-27T07:37:18.014Z,354.8608
2017-12-27T07:38:22.931Z,354.6019
2017-12-27T07:39:28.193Z,354.1712
2017-12-27T07:40:33.387Z,353.9149
2017-12-27T07:41:38.910Z,353.9149
2017-12-27T07:42:44.641Z,352.8791
2017-12-27T07:43:50.115Z,354.4301
2017-12-27T07:44:55.593Z,353.9149
2017-12-27T07:46:00.759Z,353.138
2017-12-27T07:47:05.958Z,354.1712
2017-12-27T07:48:11.136Z,353.138
2017-12-27T07:49:16.577Z,353.6559
2017-12-27T07:50:21.796Z,354.4301
2017-12-27T07:51:27.731Z,355.1198
2017-12-27T07:52:32.925Z,354.8608
2017-12-27T07:53:38.417Z,354.6019
2017-12-27T07:54:44.151Z,355.1198
2017-12-27T07:55:49.325Z,355.1198
2017-12-27T07:56:54.808Z,355.1198
2017-12-27T07:58:01.257Z,355.1198
2017-12-27T07:59:06.707Z,354.6019
2017-12-27T08:00:12.195Z,354.6019
2017-12-27T08:01:17.861Z,355.894
2017-12-27T08:02:23.325Z,355.6377
2017-12-27T08:03:28.862Z,356.6708
2017-12-27T08:04:34.030Z,356.1529
2017-12-27T08:05:39.496Z,356.1529
2017-12-27T08:06:45.432Z,356.1529
2017-12-27T08:07:50.923Z,356.1529
2017-12-27T08:08:56.385Z,356.9297
2017-12-27T08:10:01.592Z,357.3604
2017-12-27T08:11:06.791Z,356.9297
2017-12-27T08:12:12.272Z,356.6708
2017-12-27T08:13:18.015Z,356.6708
2017-12-27T08:14:23.505Z,356.1529
2017-12-27T08:15:29.182Z,357.1015
2017-12-27T08:16:34.658Z,356.8426
2017-12-27T08:17:40.129Z,356.8426
2017-12-27T08:18:46.170Z,358.1346
2017-12-27T08:19:51.646Z,357.8757
2017-12-27T08:20:57.125Z,357.8757
2017-12-27T08:22:02.567Z,357.445
2017-12-27T08:23:08.048Z,357.8757
2017-12-27T08:24:12.948Z,358.6526
2017-12-27T08:25:18.662Z,358.9115
2017-12-27T08:26:23.878Z,357.445
2017-12-27T08:27:29.280Z,358.6526
2017-12-27T08:28:34.486Z,357.7039
2017-12-27T08:29:39.657Z,357.3604
2017-12-27T08:30:45.393Z,358.3936
2017-12-27T08:31:50.582Z,357.1015
2017-12-27T08:32:56.052Z,357.7039
2017-12-27T08:34:01.899Z,357.8757
2017-12-27T08:35:07.390Z,358.6526
2017-12-27T08:36:12.613Z,357.7039
2017-12-27T08:37:18.114Z,357.8757
2017-12-27T08:38:23.309Z,358.6526
2017-12-27T08:39:29.046Z,358.1346
2017-12-27T08:40:34.548Z,358.9115
2017-12-27T08:41:39.736Z,358.3936
2017-12-27T08:42:45.225Z,359.1678
2017-12-27T08:43:50.409Z,358.9115
2017-12-27T08:44:55.608Z,359.1678
2017-12-27T08:46:01.437Z,359.6011
2017-12-27T08:47:06.931Z,357.8757
2017-12-27T08:48:11.825Z,358.9115
2017-12-27T08:49:17.581Z,358.6526
2017-12-27T08:50:22.828Z,359.1678
2017-12-27T08:51:28.401Z,358.1346
2017-12-27T08:52:33.304Z,359.4268
2017-12-27T08:53:38.789Z,358.9115
2017-12-27T08:54:44.569Z,359.6857
2017-12-27T08:55:50.048Z,359.9446
2017-12-27T08:56:55.554Z,358.9115
2017-12-27T08:58:01.395Z,360.6343
2017-12-27T08:59:06.854Z,360.3753
2017-12-27T09:00:12.363Z,360.3753
2017-12-27T09:01:17.552Z,359.8575
2017-12-27T09:02:22.765Z,359.6011
2017-12-27T09:03:28.455Z,360.6343
2017-12-27T09:04:33.639Z,361.6674
2017-12-27T09:05:39.146Z,360.6343
2017-12-27T09:06:44.933Z,361.4085
2017-12-27T09:07:49.591Z,360.6343
2017-12-27T09:08:55.060Z,360.8932
2017-12-27T09:10:00.798Z,360.8932
2017-12-27T09:11:06.341Z,361.1522
2017-12-27T09:12:11.540Z,360.3753
2017-12-27T09:13:17.316Z,360.8932
2017-12-27T09:14:21.942Z,360.8932
2017-12-27T09:15:27.733Z,360.8932
2017-12-27T09:16:33.197Z,361.1522
2017-12-27T09:17:38.427Z,361.1522
2017-12-27T09:18:44.449Z,360.8932
2017-12-27T09:19:49.934Z,360.8932
2017-12-27T09:20:55.445Z,361.6674
2017-12-27T09:22:01.174Z,361.4085
2017-12-27T09:23:06.366Z,360.8932
2017-12-27T09:24:11.534Z,360.3753
2017-12-27T09:25:16.983Z,362.4443
2017-12-27T09:26:22.201Z,360.6343
2017-12-27T09:27:28.366Z,360.6343
2017-12-27T09:28:33.841Z,361.9264
2017-12-27T09:29:39.298Z,361.4085
2017-12-27T09:30:44.855Z,361.4085
2017-12-27T09:31:50.364Z,361.4085
2017-12-27T09:32:55.843Z,362.1853
2017-12-27T09:34:01.674Z,362.1853
2017-12-27T09:35:07.159Z,361.9264
2017-12-27T09:36:12.629Z,362.1853
2017-12-27T09:37:17.907Z,361.6674
2017-12-27T09:38:22.848Z,361.6674
2017-12-27T09:39:28.771Z,360.3753
2017-12-27T09:40:34.262Z,361.9264
2017-12-27T09:41:39.736Z,362.1008
2017-12-27T09:42:45.181Z,360.6343
2017-12-27T09:43:49.842Z,362.1853
2017-12-27T09:44:55.311Z,361.1522
2017-12-27T09:46:01.204Z,360.4626
2017-12-27T09:47:06.416Z,361.1522
2017-12-27T09:48:11.609Z,361.9264
2017-12-27T09:49:17.046Z,362.1853
2017-12-27T09:50:22.244Z,362.1853
2017-12-27T09:51:28.479Z,361.6674
2017-12-27T09:52:33.955Z,362.1853
2017-12-27T09:53:39.147Z,360.8932
2017-12-27T09:54:45.150Z,361.1522
2017-12-27T09:55:50.635Z,361.4085
2017-12-27T09:56:56.105Z,360.6343
2017-12-27T09:58:01.923Z,361.6674
2017-12-27T09:59:07.417Z,361.6674
2017-12-27T10:00:12.625Z,360.6343
2017-12-27T10:01:18.362Z,361.9264
2017-12-27T10:02:22.436Z,361.1522
2017-12-27T10:03:27.941Z,361.9264
2017-12-27T10:04:33.423Z,361.9264
2017-12-27T10:05:38.906Z,360.8932
2017-12-27T10:06:44.761Z,362.1853
2017-12-27T10:07:49.950Z,362.4443
2017-12-27T10:08:54.817Z,362.7032
2017-12-27T10:10:00.429Z,362.1853
2017-12-27T10:11:05.616Z,363.1339
2017-12-27T10:12:10.546Z,362.4443
2017-12-27T10:13:16.133Z,362.4443
2017-12-27T10:14:21.610Z,362.1853
2017-12-27T10:15:27.143Z,361.9264
2017-12-27T10:16:32.597Z,361.9264
2017-12-27T10:17:38.113Z,362.7904
2017-12-27T10:18:43.666Z,362.7032
2017-12-27T10:19:49.172Z,363.3057
2017-12-27T10:20:54.642Z,364.0825
2017-12-27T10:22:00.403Z,363.3057
2017-12-27T10:23:05.598Z,363.8236
2017-12-27T10:24:10.243Z,364.8594
2017-12-27T10:25:15.946Z,365.1157
2017-12-27T10:26:21.438Z,365.6335
2017-12-27T10:27:27.126Z,365.1157
2017-12-27T10:28:32.311Z,364.6004
2017-12-27T10:29:37.248Z,363.3057
2017-12-27T10:30:42.912Z,363.5646
2017-12-27T10:31:48.407Z,363.8236
2017-12-27T10:32:53.608Z,364.3415
2017-12-27T10:33:59.551Z,363.5646
2017-12-27T10:35:05.063Z,364.3415
2017-12-27T10:36:10.184Z,364.0825
2017-12-27T10:37:15.984Z,364.3415
2017-12-27T10:38:20.936Z,365.1157
2017-12-27T10:39:26.634Z,365.2901
2017-12-27T10:40:31.758Z,366.3232
2017-12-27T10:41:36.948Z,365.808
2017-12-27T10:42:43.131Z,366.5822
2017-12-27T10:43:48.667Z,367.2718
2017-12-27T10:44:54.153Z,366.5822
2017-12-27T10:45:59.875Z,366.5822
2017-12-27T10:47:05.372Z,367.0128
2017-12-27T10:48:10.844Z,367.2718
2017-12-27T10:49:16.703Z,367.5307
2017-12-27T10:50:21.895Z,366.5822
2017-12-27T10:51:27.539Z,367.5307
2017-12-27T10:52:33.034Z,366.5822
2017-12-27T10:53:37.934Z,368.3076
2017-12-27T10:54:43.460Z,367.2718
2017-12-27T10:55:48.623Z,368.0486
2017-12-27T10:56:54.098Z,367.2718
2017-12-27T10:57:59.909Z,368.3076
2017-12-27T10:59:05.418Z,368.3076
2017-12-27T11:00:10.929Z,368.5665
2017-12-27T11:01:16.744Z,368.7383
2017-12-27T11:02:22.207Z,368.3076
2017-12-27T11:03:28.132Z,368.9972
2017-12-27T11:04:33.597Z,367.7897
2017-12-27T11:05:38.807Z,368.5665
2017-12-27T11:06:44.398Z,368.0486
2017-12-27T11:07:49.885Z,368.9972
2017-12-27T11:08:55.077Z,368.9972
2017-12-27T11:10:00.635Z,368.3076
2017-12-27T11:11:06.158Z,369.2562
2017-12-27T11:12:10.778Z,368.8255
2017-12-27T11:13:16.223Z,369.2562
2017-12-27T11:14:21.438Z,370.5509
2017-12-27T11:15:27.201Z,370.8099
2017-12-27T11:16:32.376Z,370.292
2017-12-27T11:17:37.892Z,370.8099
2017-12-27T11:18:43.841Z,371.4995
2017-12-27T11:19:49.326Z,371.0688
2017-12-27T11:20:54.503Z,371.0688
2017-12-27T11:22:00.422Z,370.9816
2017-12-27T11:23:05.359Z,370.8099
2017-12-27T11:24:10.819Z,371.3278
2017-12-27T11:25:15.792Z,370.292
2017-12-27T11:26:20.980Z,370.5509
2017-12-27T11:27:41.253Z,370.033
2017-12-27T11:28:46.748Z,371.3278
2017-12-27T11:29:52.104Z,371.7585
2017-12-27T11:30:57.834Z,371.2406
2017-12-27T11:32:03.258Z,371.7585
2017-12-27T11:33:08.443Z,371.7585
2017-12-27T11:34:13.891Z,371.7585
2017-12-27T11:35:19.089Z,372.2763
2017-12-27T11:36:24.306Z,373.0532
2017-12-27T11:37:29.971Z,372.7943
2017-12-27T11:38:34.591Z,372.5353
2017-12-27T11:39:40.879Z,371.8456
2017-12-27T11:40:46.384Z,373.3121
2017-12-27T11:41:51.616Z,372.7943
2017-12-27T11:42:57.281Z,372.2763
2017-12-27T11:44:02.456Z,372.2763
2017-12-27T11:45:07.650Z,372.2763
2017-12-27T11:46:13.370Z,373.3121
2017-12-27T11:47:18.852Z,373.0532
2017-12-27T11:48:23.492Z,372.1046
2017-12-27T11:49:43.929Z,372.2763
2017-12-27T11:50:49.122Z,373.5711
2017-12-27T11:51:54.506Z,372.6225
2017-12-27T11:52:59.968Z,372.7943
2017-12-27T11:54:05.391Z,372.2763
2017-12-27T11:55:11.588Z,374.089
2017-12-27T11:56:16.769Z,373.83
2017-12-27T11:57:22.455Z,374.3479
2017-12-27T11:58:28.482Z,372.5353
2017-12-27T11:59:33.665Z,373.5711
2017-12-27T12:00:39.145Z,373.0532
2017-12-27T12:01:44.644Z,372.7943
2017-12-27T12:02:50.127Z,374.089
2017-12-27T12:03:56.409Z,373.3121
2017-12-27T12:05:01.879Z,374.3479
2017-12-27T12:06:06.829Z,374.7786
2017-12-27T12:07:12.389Z,373.83
2017-12-27T12:08:17.896Z,374.8658
2017-12-27T12:09:23.073Z,375.2965
2017-12-27T12:10:28.802Z,374.8658
2017-12-27T12:11:34.258Z,375.2965
2017-12-27T12:12:39.903Z,375.0376
2017-12-27T12:13:45.114Z,375.2965
2017-12-27T12:14:50.597Z,375.5555
2017-12-27T12:15:56.743Z,375.5555
2017-12-27T12:17:01.949Z,375.5555
2017-12-27T12:18:07.434Z,376.3323
2017-12-27T12:19:12.801Z,376.0734
2017-12-27T12:20:18.328Z,376.5912
2017-12-27T12:22:43.740Z,377.7142
2017-12-27T12:23:48.977Z,377.2809
2017-12-27T12:24:54.924Z,377.7142
2017-12-27T12:26:00.145Z,377.3681
2017-12-27T12:27:05.339Z,377.5399
2017-12-27T12:28:10.536Z,378.2321
2017-12-27T12:29:16.064Z,377.3681
2017-12-27T12:30:20.961Z,377.7988
2017-12-27T12:31:41.083Z,376.5912
2017-12-27T12:32:46.573Z,376.3323
2017-12-27T12:33:52.473Z,377.3681
2017-12-27T12:34:57.669Z,377.1092
2017-12-27T12:36:03.141Z,377.9732
2017-12-27T12:37:08.655Z,377.0219
2017-12-27T12:38:14.113Z,377.3681
2017-12-27T12:39:19.612Z,377.9732
2017-12-27T12:40:24.964Z,376.8502
2017-12-27T12:41:30.443Z,377.0219
2017-12-27T12:42:35.895Z,377.2809
2017-12-27T12:43:41.124Z,378.2321
2017-12-27T12:44:46.592Z,378.4911
2017-12-27T12:45:52.426Z,377.9732
2017-12-27T12:46:58.090Z,379.009
2017-12-27T12:48:03.475Z,377.7142
2017-12-27T12:49:09.213Z,378.2321
2017-12-27T12:50:13.837Z,378.2321
2017-12-27T12:51:19.305Z,377.7142
2017-12-27T12:52:24.177Z,378.2321